<?xml version="1.0" encoding="UTF-8" standalone="no" ?>
<gpx xmlns="http://www.topografix.com/GPX/1/1" xmlns:xsi="http://www.w3.org/2001/XMLSchema-instance" xsi:schemaLocation="http://www.topografix.com/GPX/1/1 http://www.topografix.com/GPX/1/1/gpx.xsd" version="1.1" creator="VisuGPX - https://www.visugpx.com">
  <metadata>
    <name>Toutes traces 4x4 Côté Brindas</name>
  </metadata>
  <trk>
    <name><![CDATA[Yzeron - Montromant]]></name>
    <extensions>
      <line xmlns="http://www.topografix.com/GPX/gpx_style/0/2">
        <color>FFFF00</color>
        <width>4</width>
      </line>
    </extensions>
    <trkseg>
      <trkpt lat="45.70468" lon="4.57697">
        <ele>779.041</ele>
        <time>2021-06-29T20:14:20Z</time>
      </trkpt>
      <trkpt lat="45.70468" lon="4.57697">
        <ele>779.041</ele>
        <time>2021-06-29T20:14:20Z</time>
      </trkpt>
      <trkpt lat="45.70463" lon="4.5769">
        <ele>779.181</ele>
        <time>2021-06-29T20:14:22Z</time>
      </trkpt>
      <trkpt lat="45.7046" lon="4.57684">
        <ele>779.209</ele>
        <time>2021-06-29T20:14:23Z</time>
      </trkpt>
      <trkpt lat="45.70456" lon="4.57678">
        <ele>779.708</ele>
        <time>2021-06-29T20:14:24Z</time>
      </trkpt>
      <trkpt lat="45.70453" lon="4.57673">
        <ele>780.241</ele>
        <time>2021-06-29T20:14:25Z</time>
      </trkpt>
      <trkpt lat="45.7045" lon="4.57666">
        <ele>780.831</ele>
        <time>2021-06-29T20:14:26Z</time>
      </trkpt>
      <trkpt lat="45.70447" lon="4.57659">
        <ele>781.464</ele>
        <time>2021-06-29T20:14:27Z</time>
      </trkpt>
      <trkpt lat="45.70444" lon="4.57653">
        <ele>781.758</ele>
        <time>2021-06-29T20:14:28Z</time>
      </trkpt>
      <trkpt lat="45.70442" lon="4.57646">
        <ele>782.535</ele>
        <time>2021-06-29T20:14:29Z</time>
      </trkpt>
      <trkpt lat="45.70439" lon="4.57639">
        <ele>783.328</ele>
        <time>2021-06-29T20:14:30Z</time>
      </trkpt>
      <trkpt lat="45.70436" lon="4.57633">
        <ele>784.185</ele>
        <time>2021-06-29T20:14:31Z</time>
      </trkpt>
      <trkpt lat="45.70432" lon="4.57628">
        <ele>784.92</ele>
        <time>2021-06-29T20:14:32Z</time>
      </trkpt>
      <trkpt lat="45.70428" lon="4.57623">
        <ele>785.741</ele>
        <time>2021-06-29T20:14:33Z</time>
      </trkpt>
      <trkpt lat="45.70424" lon="4.57618">
        <ele>786.481</ele>
        <time>2021-06-29T20:14:34Z</time>
      </trkpt>
      <trkpt lat="45.70417" lon="4.57611">
        <ele>787.809</ele>
        <time>2021-06-29T20:14:36Z</time>
      </trkpt>
      <trkpt lat="45.70414" lon="4.57607">
        <ele>788.608</ele>
        <time>2021-06-29T20:14:37Z</time>
      </trkpt>
      <trkpt lat="45.7041" lon="4.57602">
        <ele>789.471</ele>
        <time>2021-06-29T20:14:38Z</time>
      </trkpt>
      <trkpt lat="45.70407" lon="4.57597">
        <ele>790.271</ele>
        <time>2021-06-29T20:14:39Z</time>
      </trkpt>
      <trkpt lat="45.70404" lon="4.57592">
        <ele>791.044</ele>
        <time>2021-06-29T20:14:40Z</time>
      </trkpt>
      <trkpt lat="45.70402" lon="4.57586">
        <ele>791.898</ele>
        <time>2021-06-29T20:14:41Z</time>
      </trkpt>
      <trkpt lat="45.704" lon="4.5758">
        <ele>792.665</ele>
        <time>2021-06-29T20:14:42Z</time>
      </trkpt>
      <trkpt lat="45.70399" lon="4.57573">
        <ele>793.528</ele>
        <time>2021-06-29T20:14:43Z</time>
      </trkpt>
      <trkpt lat="45.70398" lon="4.57566">
        <ele>794.455</ele>
        <time>2021-06-29T20:14:44Z</time>
      </trkpt>
      <trkpt lat="45.70396" lon="4.57559">
        <ele>795.37</ele>
        <time>2021-06-29T20:14:45Z</time>
      </trkpt>
      <trkpt lat="45.70393" lon="4.57553">
        <ele>796.271</ele>
        <time>2021-06-29T20:14:46Z</time>
      </trkpt>
      <trkpt lat="45.70391" lon="4.57545">
        <ele>796.941</ele>
        <time>2021-06-29T20:14:47Z</time>
      </trkpt>
      <trkpt lat="45.70389" lon="4.57538">
        <ele>797.615</ele>
        <time>2021-06-29T20:14:48Z</time>
      </trkpt>
      <trkpt lat="45.70388" lon="4.57531">
        <ele>798.108</ele>
        <time>2021-06-29T20:14:49Z</time>
      </trkpt>
      <trkpt lat="45.70387" lon="4.57524">
        <ele>798.724</ele>
        <time>2021-06-29T20:14:50Z</time>
      </trkpt>
      <trkpt lat="45.70385" lon="4.57517">
        <ele>799.294</ele>
        <time>2021-06-29T20:14:51Z</time>
      </trkpt>
      <trkpt lat="45.70383" lon="4.5751">
        <ele>799.877</ele>
        <time>2021-06-29T20:14:52Z</time>
      </trkpt>
      <trkpt lat="45.7038" lon="4.57499">
        <ele>800.881</ele>
        <time>2021-06-29T20:14:53Z</time>
      </trkpt>
      <trkpt lat="45.70377" lon="4.5749">
        <ele>801.818</ele>
        <time>2021-06-29T20:14:55Z</time>
      </trkpt>
      <trkpt lat="45.70376" lon="4.5748">
        <ele>802.991</ele>
        <time>2021-06-29T20:14:57Z</time>
      </trkpt>
      <trkpt lat="45.70373" lon="4.57468">
        <ele>804.098</ele>
        <time>2021-06-29T20:14:59Z</time>
      </trkpt>
      <trkpt lat="45.7037" lon="4.57457">
        <ele>805.073</ele>
        <time>2021-06-29T20:15:01Z</time>
      </trkpt>
      <trkpt lat="45.70368" lon="4.57447">
        <ele>805.796</ele>
        <time>2021-06-29T20:15:03Z</time>
      </trkpt>
      <trkpt lat="45.70366" lon="4.57437">
        <ele>806.231</ele>
        <time>2021-06-29T20:15:05Z</time>
      </trkpt>
      <trkpt lat="45.70366" lon="4.57422">
        <ele>806.824</ele>
        <time>2021-06-29T20:15:07Z</time>
      </trkpt>
      <trkpt lat="45.70366" lon="4.57414">
        <ele>807.208</ele>
        <time>2021-06-29T20:15:08Z</time>
      </trkpt>
      <trkpt lat="45.70366" lon="4.57405">
        <ele>807.736</ele>
        <time>2021-06-29T20:15:09Z</time>
      </trkpt>
      <trkpt lat="45.70366" lon="4.57396">
        <ele>808.226</ele>
        <time>2021-06-29T20:15:10Z</time>
      </trkpt>
      <trkpt lat="45.70366" lon="4.57385">
        <ele>808.869</ele>
        <time>2021-06-29T20:15:11Z</time>
      </trkpt>
      <trkpt lat="45.70366" lon="4.57371">
        <ele>809.493</ele>
        <time>2021-06-29T20:15:12Z</time>
      </trkpt>
      <trkpt lat="45.70367" lon="4.57359">
        <ele>810.09</ele>
        <time>2021-06-29T20:15:13Z</time>
      </trkpt>
      <trkpt lat="45.70369" lon="4.57349">
        <ele>810.413</ele>
        <time>2021-06-29T20:15:14Z</time>
      </trkpt>
      <trkpt lat="45.7037" lon="4.57343">
        <ele>810.86</ele>
        <time>2021-06-29T20:15:15Z</time>
      </trkpt>
      <trkpt lat="45.7037" lon="4.57336">
        <ele>811.245</ele>
        <time>2021-06-29T20:15:16Z</time>
      </trkpt>
      <trkpt lat="45.70371" lon="4.57326">
        <ele>811.588</ele>
        <time>2021-06-29T20:15:17Z</time>
      </trkpt>
      <trkpt lat="45.70372" lon="4.57317">
        <ele>811.824</ele>
        <time>2021-06-29T20:15:18Z</time>
      </trkpt>
      <trkpt lat="45.70372" lon="4.57307">
        <ele>812.226</ele>
        <time>2021-06-29T20:15:19Z</time>
      </trkpt>
      <trkpt lat="45.70373" lon="4.57297">
        <ele>812.708</ele>
        <time>2021-06-29T20:15:20Z</time>
      </trkpt>
      <trkpt lat="45.70372" lon="4.57288">
        <ele>813.165</ele>
        <time>2021-06-29T20:15:21Z</time>
      </trkpt>
      <trkpt lat="45.70372" lon="4.57278">
        <ele>813.595</ele>
        <time>2021-06-29T20:15:22Z</time>
      </trkpt>
      <trkpt lat="45.70372" lon="4.57269">
        <ele>814.088</ele>
        <time>2021-06-29T20:15:23Z</time>
      </trkpt>
      <trkpt lat="45.70372" lon="4.57261">
        <ele>814.572</ele>
        <time>2021-06-29T20:15:24Z</time>
      </trkpt>
      <trkpt lat="45.70372" lon="4.57254">
        <ele>815.099</ele>
        <time>2021-06-29T20:15:25Z</time>
      </trkpt>
      <trkpt lat="45.70372" lon="4.57246">
        <ele>815.472</ele>
        <time>2021-06-29T20:15:26Z</time>
      </trkpt>
      <trkpt lat="45.70372" lon="4.57238">
        <ele>815.929</ele>
        <time>2021-06-29T20:15:27Z</time>
      </trkpt>
      <trkpt lat="45.70372" lon="4.5723">
        <ele>816.374</ele>
        <time>2021-06-29T20:15:28Z</time>
      </trkpt>
      <trkpt lat="45.70372" lon="4.57222">
        <ele>816.854</ele>
        <time>2021-06-29T20:15:29Z</time>
      </trkpt>
      <trkpt lat="45.70373" lon="4.57214">
        <ele>817.356</ele>
        <time>2021-06-29T20:15:30Z</time>
      </trkpt>
      <trkpt lat="45.70372" lon="4.57208">
        <ele>817.811</ele>
        <time>2021-06-29T20:15:31Z</time>
      </trkpt>
      <trkpt lat="45.70373" lon="4.57201">
        <ele>818.308</ele>
        <time>2021-06-29T20:15:32Z</time>
      </trkpt>
      <trkpt lat="45.70373" lon="4.57188">
        <ele>819.362</ele>
        <time>2021-06-29T20:15:34Z</time>
      </trkpt>
      <trkpt lat="45.70374" lon="4.57181">
        <ele>819.812</ele>
        <time>2021-06-29T20:15:35Z</time>
      </trkpt>
      <trkpt lat="45.70373" lon="4.57171">
        <ele>820.965</ele>
        <time>2021-06-29T20:15:37Z</time>
      </trkpt>
      <trkpt lat="45.70372" lon="4.57164">
        <ele>822.089</ele>
        <time>2021-06-29T20:15:39Z</time>
      </trkpt>
      <trkpt lat="45.7037" lon="4.57156">
        <ele>823.076</ele>
        <time>2021-06-29T20:15:42Z</time>
      </trkpt>
      <trkpt lat="45.70369" lon="4.57147">
        <ele>823.599</ele>
        <time>2021-06-29T20:15:44Z</time>
      </trkpt>
      <trkpt lat="45.70367" lon="4.57134">
        <ele>824.266</ele>
        <time>2021-06-29T20:15:46Z</time>
      </trkpt>
      <trkpt lat="45.70366" lon="4.57127">
        <ele>824.631</ele>
        <time>2021-06-29T20:15:47Z</time>
      </trkpt>
      <trkpt lat="45.70365" lon="4.57119">
        <ele>825.116</ele>
        <time>2021-06-29T20:15:48Z</time>
      </trkpt>
      <trkpt lat="45.70364" lon="4.57111">
        <ele>825.676</ele>
        <time>2021-06-29T20:15:49Z</time>
      </trkpt>
      <trkpt lat="45.70362" lon="4.57103">
        <ele>826.113</ele>
        <time>2021-06-29T20:15:50Z</time>
      </trkpt>
      <trkpt lat="45.70361" lon="4.57095">
        <ele>826.608</ele>
        <time>2021-06-29T20:15:51Z</time>
      </trkpt>
      <trkpt lat="45.70359" lon="4.57088">
        <ele>827.178</ele>
        <time>2021-06-29T20:15:52Z</time>
      </trkpt>
      <trkpt lat="45.70359" lon="4.5708">
        <ele>827.768</ele>
        <time>2021-06-29T20:15:53Z</time>
      </trkpt>
      <trkpt lat="45.70358" lon="4.57072">
        <ele>828.471</ele>
        <time>2021-06-29T20:15:54Z</time>
      </trkpt>
      <trkpt lat="45.70357" lon="4.57065">
        <ele>829.025</ele>
        <time>2021-06-29T20:15:55Z</time>
      </trkpt>
      <trkpt lat="45.70355" lon="4.57057">
        <ele>829.692</ele>
        <time>2021-06-29T20:15:56Z</time>
      </trkpt>
      <trkpt lat="45.70354" lon="4.5705">
        <ele>830.295</ele>
        <time>2021-06-29T20:15:57Z</time>
      </trkpt>
      <trkpt lat="45.70352" lon="4.57038">
        <ele>831.082</ele>
        <time>2021-06-29T20:15:59Z</time>
      </trkpt>
      <trkpt lat="45.70351" lon="4.57029">
        <ele>831.887</ele>
        <time>2021-06-29T20:16:01Z</time>
      </trkpt>
      <trkpt lat="45.70349" lon="4.57015">
        <ele>832.764</ele>
        <time>2021-06-29T20:16:03Z</time>
      </trkpt>
      <trkpt lat="45.70348" lon="4.57007">
        <ele>833.206</ele>
        <time>2021-06-29T20:16:04Z</time>
      </trkpt>
      <trkpt lat="45.70347" lon="4.57">
        <ele>833.616</ele>
        <time>2021-06-29T20:16:05Z</time>
      </trkpt>
      <trkpt lat="45.70345" lon="4.5699">
        <ele>834.708</ele>
        <time>2021-06-29T20:16:08Z</time>
      </trkpt>
      <trkpt lat="45.70344" lon="4.56978">
        <ele>835.563</ele>
        <time>2021-06-29T20:16:10Z</time>
      </trkpt>
      <trkpt lat="45.70343" lon="4.56966">
        <ele>836.433</ele>
        <time>2021-06-29T20:16:12Z</time>
      </trkpt>
      <trkpt lat="45.70341" lon="4.5696">
        <ele>836.856</ele>
        <time>2021-06-29T20:16:13Z</time>
      </trkpt>
      <trkpt lat="45.7034" lon="4.5695">
        <ele>837.63</ele>
        <time>2021-06-29T20:16:15Z</time>
      </trkpt>
      <trkpt lat="45.70338" lon="4.56942">
        <ele>838.117</ele>
        <time>2021-06-29T20:16:16Z</time>
      </trkpt>
      <trkpt lat="45.70335" lon="4.56926">
        <ele>839.48</ele>
        <time>2021-06-29T20:16:18Z</time>
      </trkpt>
      <trkpt lat="45.70333" lon="4.56918">
        <ele>840.137</ele>
        <time>2021-06-29T20:16:19Z</time>
      </trkpt>
      <trkpt lat="45.70332" lon="4.56909">
        <ele>840.982</ele>
        <time>2021-06-29T20:16:20Z</time>
      </trkpt>
      <trkpt lat="45.70331" lon="4.569">
        <ele>841.691</ele>
        <time>2021-06-29T20:16:21Z</time>
      </trkpt>
      <trkpt lat="45.7033" lon="4.56892">
        <ele>842.281</ele>
        <time>2021-06-29T20:16:22Z</time>
      </trkpt>
      <trkpt lat="45.70328" lon="4.56884">
        <ele>842.719</ele>
        <time>2021-06-29T20:16:23Z</time>
      </trkpt>
      <trkpt lat="45.70327" lon="4.56872">
        <ele>843.508</ele>
        <time>2021-06-29T20:16:25Z</time>
      </trkpt>
      <trkpt lat="45.70325" lon="4.56864">
        <ele>843.786</ele>
        <time>2021-06-29T20:16:26Z</time>
      </trkpt>
      <trkpt lat="45.70324" lon="4.56857">
        <ele>843.966</ele>
        <time>2021-06-29T20:16:27Z</time>
      </trkpt>
      <trkpt lat="45.70323" lon="4.56848">
        <ele>844.089</ele>
        <time>2021-06-29T20:16:29Z</time>
      </trkpt>
      <trkpt lat="45.7032" lon="4.56838">
        <ele>844.143</ele>
        <time>2021-06-29T20:16:31Z</time>
      </trkpt>
      <trkpt lat="45.70318" lon="4.5683">
        <ele>844.27</ele>
        <time>2021-06-29T20:16:33Z</time>
      </trkpt>
      <trkpt lat="45.70314" lon="4.56817">
        <ele>844.413</ele>
        <time>2021-06-29T20:18:10Z</time>
      </trkpt>
      <trkpt lat="45.70314" lon="4.56807">
        <ele>844.49</ele>
        <time>2021-06-29T20:18:13Z</time>
      </trkpt>
      <trkpt lat="45.7031" lon="4.56799">
        <ele>844.275</ele>
        <time>2021-06-29T20:18:15Z</time>
      </trkpt>
      <trkpt lat="45.70307" lon="4.56791">
        <ele>844.271</ele>
        <time>2021-06-29T20:18:17Z</time>
      </trkpt>
      <trkpt lat="45.70304" lon="4.56785">
        <ele>844.441</ele>
        <time>2021-06-29T20:18:19Z</time>
      </trkpt>
      <trkpt lat="45.70301" lon="4.56779">
        <ele>844.815</ele>
        <time>2021-06-29T20:18:21Z</time>
      </trkpt>
      <trkpt lat="45.70298" lon="4.56772">
        <ele>845.308</ele>
        <time>2021-06-29T20:18:23Z</time>
      </trkpt>
      <trkpt lat="45.70295" lon="4.56765">
        <ele>845.864</ele>
        <time>2021-06-29T20:18:25Z</time>
      </trkpt>
      <trkpt lat="45.70293" lon="4.56757">
        <ele>846.364</ele>
        <time>2021-06-29T20:18:27Z</time>
      </trkpt>
      <trkpt lat="45.70292" lon="4.56748">
        <ele>846.867</ele>
        <time>2021-06-29T20:18:29Z</time>
      </trkpt>
      <trkpt lat="45.7029" lon="4.56739">
        <ele>847.321</ele>
        <time>2021-06-29T20:18:31Z</time>
      </trkpt>
      <trkpt lat="45.70288" lon="4.56728">
        <ele>847.868</ele>
        <time>2021-06-29T20:18:33Z</time>
      </trkpt>
      <trkpt lat="45.70286" lon="4.5672">
        <ele>848.221</ele>
        <time>2021-06-29T20:18:34Z</time>
      </trkpt>
      <trkpt lat="45.70282" lon="4.56711">
        <ele>848.658</ele>
        <time>2021-06-29T20:18:35Z</time>
      </trkpt>
      <trkpt lat="45.70279" lon="4.56703">
        <ele>848.963</ele>
        <time>2021-06-29T20:18:36Z</time>
      </trkpt>
      <trkpt lat="45.70275" lon="4.56694">
        <ele>849.221</ele>
        <time>2021-06-29T20:18:37Z</time>
      </trkpt>
      <trkpt lat="45.70269" lon="4.56687">
        <ele>849.441</ele>
        <time>2021-06-29T20:18:38Z</time>
      </trkpt>
      <trkpt lat="45.70263" lon="4.5668">
        <ele>849.505</ele>
        <time>2021-06-29T20:18:39Z</time>
      </trkpt>
      <trkpt lat="45.70257" lon="4.56674">
        <ele>849.608</ele>
        <time>2021-06-29T20:18:40Z</time>
      </trkpt>
      <trkpt lat="45.7025" lon="4.56668">
        <ele>849.819</ele>
        <time>2021-06-29T20:18:41Z</time>
      </trkpt>
      <trkpt lat="45.70245" lon="4.56664">
        <ele>849.999</ele>
        <time>2021-06-29T20:18:42Z</time>
      </trkpt>
      <trkpt lat="45.70237" lon="4.56659">
        <ele>850.612</ele>
        <time>2021-06-29T20:18:44Z</time>
      </trkpt>
      <trkpt lat="45.70233" lon="4.56657">
        <ele>851.196</ele>
        <time>2021-06-29T20:18:45Z</time>
      </trkpt>
      <trkpt lat="45.70228" lon="4.56654">
        <ele>851.723</ele>
        <time>2021-06-29T20:18:46Z</time>
      </trkpt>
      <trkpt lat="45.70221" lon="4.56649">
        <ele>853.116</ele>
        <time>2021-06-29T20:18:48Z</time>
      </trkpt>
      <trkpt lat="45.70216" lon="4.56645">
        <ele>854.373</ele>
        <time>2021-06-29T20:18:50Z</time>
      </trkpt>
      <trkpt lat="45.70209" lon="4.56642">
        <ele>855.368</ele>
        <time>2021-06-29T20:18:52Z</time>
      </trkpt>
      <trkpt lat="45.70205" lon="4.56638">
        <ele>856.028</ele>
        <time>2021-06-29T20:18:53Z</time>
      </trkpt>
      <trkpt lat="45.702" lon="4.56631">
        <ele>856.889</ele>
        <time>2021-06-29T20:18:54Z</time>
      </trkpt>
      <trkpt lat="45.70195" lon="4.56626">
        <ele>857.617</ele>
        <time>2021-06-29T20:18:55Z</time>
      </trkpt>
      <trkpt lat="45.7019" lon="4.56618">
        <ele>859.508</ele>
        <time>2021-06-29T20:18:57Z</time>
      </trkpt>
      <trkpt lat="45.70188" lon="4.5661">
        <ele>861.069</ele>
        <time>2021-06-29T20:18:59Z</time>
      </trkpt>
      <trkpt lat="45.70184" lon="4.56602">
        <ele>861.959</ele>
        <time>2021-06-29T20:19:01Z</time>
      </trkpt>
      <trkpt lat="45.70179" lon="4.56598">
        <ele>862.562</ele>
        <time>2021-06-29T20:19:03Z</time>
      </trkpt>
      <trkpt lat="45.70176" lon="4.56591">
        <ele>862.976</ele>
        <time>2021-06-29T20:19:04Z</time>
      </trkpt>
      <trkpt lat="45.70173" lon="4.56583">
        <ele>863.413</ele>
        <time>2021-06-29T20:19:05Z</time>
      </trkpt>
      <trkpt lat="45.70169" lon="4.56574">
        <ele>864.066</ele>
        <time>2021-06-29T20:19:06Z</time>
      </trkpt>
      <trkpt lat="45.70167" lon="4.56562">
        <ele>864.753</ele>
        <time>2021-06-29T20:19:07Z</time>
      </trkpt>
      <trkpt lat="45.70163" lon="4.56553">
        <ele>865.598</ele>
        <time>2021-06-29T20:19:08Z</time>
      </trkpt>
      <trkpt lat="45.70163" lon="4.56545">
        <ele>866.513</ele>
        <time>2021-06-29T20:19:09Z</time>
      </trkpt>
      <trkpt lat="45.7016" lon="4.56538">
        <ele>867.643</ele>
        <time>2021-06-29T20:19:10Z</time>
      </trkpt>
      <trkpt lat="45.70158" lon="4.56528">
        <ele>869.907</ele>
        <time>2021-06-29T20:19:12Z</time>
      </trkpt>
      <trkpt lat="45.70157" lon="4.56517">
        <ele>872.008</ele>
        <time>2021-06-29T20:19:14Z</time>
      </trkpt>
      <trkpt lat="45.70157" lon="4.56507">
        <ele>873.548</ele>
        <time>2021-06-29T20:19:16Z</time>
      </trkpt>
      <trkpt lat="45.70156" lon="4.56496">
        <ele>874.748</ele>
        <time>2021-06-29T20:19:18Z</time>
      </trkpt>
      <trkpt lat="45.70154" lon="4.5649">
        <ele>875.321</ele>
        <time>2021-06-29T20:19:19Z</time>
      </trkpt>
      <trkpt lat="45.70153" lon="4.56483">
        <ele>875.885</ele>
        <time>2021-06-29T20:19:20Z</time>
      </trkpt>
      <trkpt lat="45.70153" lon="4.56473">
        <ele>876.782</ele>
        <time>2021-06-29T20:19:22Z</time>
      </trkpt>
      <trkpt lat="45.70152" lon="4.56463">
        <ele>877.425</ele>
        <time>2021-06-29T20:19:24Z</time>
      </trkpt>
      <trkpt lat="45.70152" lon="4.56455">
        <ele>878.172</ele>
        <time>2021-06-29T20:19:30Z</time>
      </trkpt>
      <trkpt lat="45.70149" lon="4.56448">
        <ele>878.337</ele>
        <time>2021-06-29T20:19:45Z</time>
      </trkpt>
      <trkpt lat="45.70151" lon="4.56439">
        <ele>878.397</ele>
        <time>2021-06-29T20:19:48Z</time>
      </trkpt>
      <trkpt lat="45.70153" lon="4.56431">
        <ele>878.223</ele>
        <time>2021-06-29T20:19:50Z</time>
      </trkpt>
      <trkpt lat="45.70159" lon="4.5642">
        <ele>877.625</ele>
        <time>2021-06-29T20:19:52Z</time>
      </trkpt>
      <trkpt lat="45.70164" lon="4.56409">
        <ele>876.708</ele>
        <time>2021-06-29T20:19:54Z</time>
      </trkpt>
      <trkpt lat="45.70167" lon="4.56404">
        <ele>876.246</ele>
        <time>2021-06-29T20:19:55Z</time>
      </trkpt>
      <trkpt lat="45.70174" lon="4.56397">
        <ele>875.336</ele>
        <time>2021-06-29T20:19:57Z</time>
      </trkpt>
      <trkpt lat="45.70179" lon="4.56394">
        <ele>874.959</ele>
        <time>2021-06-29T20:19:58Z</time>
      </trkpt>
      <trkpt lat="45.70184" lon="4.56391">
        <ele>874.523</ele>
        <time>2021-06-29T20:19:59Z</time>
      </trkpt>
      <trkpt lat="45.7019" lon="4.56387">
        <ele>873.63</ele>
        <time>2021-06-29T20:20:01Z</time>
      </trkpt>
      <trkpt lat="45.70193" lon="4.56382">
        <ele>873.213</ele>
        <time>2021-06-29T20:20:02Z</time>
      </trkpt>
      <trkpt lat="45.70199" lon="4.56377">
        <ele>872.19</ele>
        <time>2021-06-29T20:20:04Z</time>
      </trkpt>
      <trkpt lat="45.70204" lon="4.56373">
        <ele>871.165</ele>
        <time>2021-06-29T20:20:06Z</time>
      </trkpt>
      <trkpt lat="45.70208" lon="4.56368">
        <ele>870.382</ele>
        <time>2021-06-29T20:20:08Z</time>
      </trkpt>
      <trkpt lat="45.70211" lon="4.56363">
        <ele>869.243</ele>
        <time>2021-06-29T20:20:11Z</time>
      </trkpt>
      <trkpt lat="45.70213" lon="4.56356">
        <ele>868.617</ele>
        <time>2021-06-29T20:20:41Z</time>
      </trkpt>
      <trkpt lat="45.7021" lon="4.56361">
        <ele>869.908</ele>
        <time>2021-06-29T20:21:07Z</time>
      </trkpt>
      <trkpt lat="45.70216" lon="4.56362">
        <ele>870.585</ele>
        <time>2021-06-29T20:21:23Z</time>
      </trkpt>
      <trkpt lat="45.70223" lon="4.5636">
        <ele>870.615</ele>
        <time>2021-06-29T20:21:29Z</time>
      </trkpt>
      <trkpt lat="45.70231" lon="4.5636">
        <ele>870.878</ele>
        <time>2021-06-29T20:21:32Z</time>
      </trkpt>
      <trkpt lat="45.70237" lon="4.56359">
        <ele>870.922</ele>
        <time>2021-06-29T20:21:34Z</time>
      </trkpt>
      <trkpt lat="45.70244" lon="4.56358">
        <ele>871.239</ele>
        <time>2021-06-29T20:21:36Z</time>
      </trkpt>
      <trkpt lat="45.70252" lon="4.5636">
        <ele>871.612</ele>
        <time>2021-06-29T20:21:38Z</time>
      </trkpt>
      <trkpt lat="45.7026" lon="4.5636">
        <ele>871.819</ele>
        <time>2021-06-29T20:21:40Z</time>
      </trkpt>
      <trkpt lat="45.70267" lon="4.56359">
        <ele>871.794</ele>
        <time>2021-06-29T20:21:42Z</time>
      </trkpt>
      <trkpt lat="45.70273" lon="4.56358">
        <ele>871.315</ele>
        <time>2021-06-29T20:21:44Z</time>
      </trkpt>
      <trkpt lat="45.70277" lon="4.56358">
        <ele>870.865</ele>
        <time>2021-06-29T20:21:46Z</time>
      </trkpt>
      <trkpt lat="45.70283" lon="4.56356">
        <ele>870.711</ele>
        <time>2021-06-29T20:21:48Z</time>
      </trkpt>
      <trkpt lat="45.70288" lon="4.56354">
        <ele>870.808</ele>
        <time>2021-06-29T20:21:49Z</time>
      </trkpt>
      <trkpt lat="45.70296" lon="4.5635">
        <ele>871.378</ele>
        <time>2021-06-29T20:21:51Z</time>
      </trkpt>
      <trkpt lat="45.70302" lon="4.56347">
        <ele>871.578</ele>
        <time>2021-06-29T20:21:53Z</time>
      </trkpt>
      <trkpt lat="45.70306" lon="4.56345">
        <ele>871.691</ele>
        <time>2021-06-29T20:21:54Z</time>
      </trkpt>
      <trkpt lat="45.70311" lon="4.56342">
        <ele>871.785</ele>
        <time>2021-06-29T20:21:55Z</time>
      </trkpt>
      <trkpt lat="45.70316" lon="4.5634">
        <ele>871.922</ele>
        <time>2021-06-29T20:21:56Z</time>
      </trkpt>
      <trkpt lat="45.70324" lon="4.56335">
        <ele>872.465</ele>
        <time>2021-06-29T20:21:58Z</time>
      </trkpt>
      <trkpt lat="45.70331" lon="4.56331">
        <ele>872.862</ele>
        <time>2021-06-29T20:22:00Z</time>
      </trkpt>
      <trkpt lat="45.70338" lon="4.56327">
        <ele>872.877</ele>
        <time>2021-06-29T20:22:02Z</time>
      </trkpt>
      <trkpt lat="45.70343" lon="4.56322">
        <ele>872.698</ele>
        <time>2021-06-29T20:22:04Z</time>
      </trkpt>
      <trkpt lat="45.70348" lon="4.56318">
        <ele>872.415</ele>
        <time>2021-06-29T20:22:06Z</time>
      </trkpt>
      <trkpt lat="45.70353" lon="4.56314">
        <ele>872.226</ele>
        <time>2021-06-29T20:22:08Z</time>
      </trkpt>
      <trkpt lat="45.70358" lon="4.56311">
        <ele>871.808</ele>
        <time>2021-06-29T20:22:10Z</time>
      </trkpt>
      <trkpt lat="45.70364" lon="4.56306">
        <ele>871.496</ele>
        <time>2021-06-29T20:22:12Z</time>
      </trkpt>
      <trkpt lat="45.70371" lon="4.56298">
        <ele>871.456</ele>
        <time>2021-06-29T20:22:14Z</time>
      </trkpt>
      <trkpt lat="45.70376" lon="4.56291">
        <ele>871.599</ele>
        <time>2021-06-29T20:22:15Z</time>
      </trkpt>
      <trkpt lat="45.70383" lon="4.56286">
        <ele>871.683</ele>
        <time>2021-06-29T20:22:16Z</time>
      </trkpt>
      <trkpt lat="45.70388" lon="4.56281">
        <ele>871.75</ele>
        <time>2021-06-29T20:22:17Z</time>
      </trkpt>
      <trkpt lat="45.70392" lon="4.56278">
        <ele>871.793</ele>
        <time>2021-06-29T20:22:18Z</time>
      </trkpt>
      <trkpt lat="45.70397" lon="4.56274">
        <ele>871.79</ele>
        <time>2021-06-29T20:22:20Z</time>
      </trkpt>
      <trkpt lat="45.70402" lon="4.56272">
        <ele>871.885</ele>
        <time>2021-06-29T20:22:22Z</time>
      </trkpt>
      <trkpt lat="45.70407" lon="4.5627">
        <ele>872.515</ele>
        <time>2021-06-29T20:22:26Z</time>
      </trkpt>
      <trkpt lat="45.70412" lon="4.56265">
        <ele>872.865</ele>
        <time>2021-06-29T20:22:29Z</time>
      </trkpt>
      <trkpt lat="45.70419" lon="4.56261">
        <ele>873.011</ele>
        <time>2021-06-29T20:22:32Z</time>
      </trkpt>
      <trkpt lat="45.70426" lon="4.56259">
        <ele>873.408</ele>
        <time>2021-06-29T20:22:34Z</time>
      </trkpt>
      <trkpt lat="45.7043" lon="4.56256">
        <ele>873.738</ele>
        <time>2021-06-29T20:22:35Z</time>
      </trkpt>
      <trkpt lat="45.70435" lon="4.56252">
        <ele>874.198</ele>
        <time>2021-06-29T20:22:36Z</time>
      </trkpt>
      <trkpt lat="45.70442" lon="4.56247">
        <ele>874.551</ele>
        <time>2021-06-29T20:22:37Z</time>
      </trkpt>
      <trkpt lat="45.7045" lon="4.56241">
        <ele>875.045</ele>
        <time>2021-06-29T20:22:38Z</time>
      </trkpt>
      <trkpt lat="45.70457" lon="4.56235">
        <ele>875.432</ele>
        <time>2021-06-29T20:22:39Z</time>
      </trkpt>
      <trkpt lat="45.70462" lon="4.5623">
        <ele>875.825</ele>
        <time>2021-06-29T20:22:40Z</time>
      </trkpt>
      <trkpt lat="45.70467" lon="4.56225">
        <ele>876.152</ele>
        <time>2021-06-29T20:22:41Z</time>
      </trkpt>
      <trkpt lat="45.7047" lon="4.5622">
        <ele>876.377</ele>
        <time>2021-06-29T20:22:42Z</time>
      </trkpt>
      <trkpt lat="45.70477" lon="4.5621">
        <ele>876.774</ele>
        <time>2021-06-29T20:22:44Z</time>
      </trkpt>
      <trkpt lat="45.70481" lon="4.56204">
        <ele>876.956</ele>
        <time>2021-06-29T20:22:45Z</time>
      </trkpt>
      <trkpt lat="45.70486" lon="4.56197">
        <ele>877.021</ele>
        <time>2021-06-29T20:22:46Z</time>
      </trkpt>
      <trkpt lat="45.70491" lon="4.56189">
        <ele>877.108</ele>
        <time>2021-06-29T20:22:47Z</time>
      </trkpt>
      <trkpt lat="45.70496" lon="4.56178">
        <ele>877.294</ele>
        <time>2021-06-29T20:22:48Z</time>
      </trkpt>
      <trkpt lat="45.70502" lon="4.56167">
        <ele>877.354</ele>
        <time>2021-06-29T20:22:49Z</time>
      </trkpt>
      <trkpt lat="45.70507" lon="4.56154">
        <ele>877.597</ele>
        <time>2021-06-29T20:22:50Z</time>
      </trkpt>
      <trkpt lat="45.70511" lon="4.56143">
        <ele>877.861</ele>
        <time>2021-06-29T20:22:51Z</time>
      </trkpt>
      <trkpt lat="45.70515" lon="4.56135">
        <ele>878.118</ele>
        <time>2021-06-29T20:22:52Z</time>
      </trkpt>
      <trkpt lat="45.70518" lon="4.5613">
        <ele>878.491</ele>
        <time>2021-06-29T20:22:53Z</time>
      </trkpt>
      <trkpt lat="45.70522" lon="4.5612">
        <ele>878.998</ele>
        <time>2021-06-29T20:22:55Z</time>
      </trkpt>
      <trkpt lat="45.70528" lon="4.56114">
        <ele>879.863</ele>
        <time>2021-06-29T20:22:57Z</time>
      </trkpt>
      <trkpt lat="45.70535" lon="4.56107">
        <ele>881.359</ele>
        <time>2021-06-29T20:22:59Z</time>
      </trkpt>
      <trkpt lat="45.70539" lon="4.56102">
        <ele>882.003</ele>
        <time>2021-06-29T20:23:00Z</time>
      </trkpt>
      <trkpt lat="45.70544" lon="4.56096">
        <ele>882.623</ele>
        <time>2021-06-29T20:23:01Z</time>
      </trkpt>
      <trkpt lat="45.70547" lon="4.56092">
        <ele>883.108</ele>
        <time>2021-06-29T20:23:02Z</time>
      </trkpt>
      <trkpt lat="45.7055" lon="4.56086">
        <ele>883.532</ele>
        <time>2021-06-29T20:23:03Z</time>
      </trkpt>
      <trkpt lat="45.70554" lon="4.5608">
        <ele>883.832</ele>
        <time>2021-06-29T20:23:04Z</time>
      </trkpt>
      <trkpt lat="45.70558" lon="4.56074">
        <ele>884.195</ele>
        <time>2021-06-29T20:23:05Z</time>
      </trkpt>
      <trkpt lat="45.70563" lon="4.56067">
        <ele>884.549</ele>
        <time>2021-06-29T20:23:06Z</time>
      </trkpt>
      <trkpt lat="45.70567" lon="4.56061">
        <ele>885.096</ele>
        <time>2021-06-29T20:23:07Z</time>
      </trkpt>
      <trkpt lat="45.70571" lon="4.56055">
        <ele>885.579</ele>
        <time>2021-06-29T20:23:08Z</time>
      </trkpt>
      <trkpt lat="45.70575" lon="4.56049">
        <ele>886.126</ele>
        <time>2021-06-29T20:23:09Z</time>
      </trkpt>
      <trkpt lat="45.70579" lon="4.56044">
        <ele>886.861</ele>
        <time>2021-06-29T20:23:10Z</time>
      </trkpt>
      <trkpt lat="45.70583" lon="4.56038">
        <ele>887.623</ele>
        <time>2021-06-29T20:23:11Z</time>
      </trkpt>
      <trkpt lat="45.70586" lon="4.56032">
        <ele>888.483</ele>
        <time>2021-06-29T20:23:12Z</time>
      </trkpt>
      <trkpt lat="45.7059" lon="4.56027">
        <ele>889.211</ele>
        <time>2021-06-29T20:23:13Z</time>
      </trkpt>
      <trkpt lat="45.70594" lon="4.56022">
        <ele>890.008</ele>
        <time>2021-06-29T20:23:14Z</time>
      </trkpt>
      <trkpt lat="45.70598" lon="4.56015">
        <ele>890.749</ele>
        <time>2021-06-29T20:23:15Z</time>
      </trkpt>
      <trkpt lat="45.70603" lon="4.56008">
        <ele>891.469</ele>
        <time>2021-06-29T20:23:16Z</time>
      </trkpt>
      <trkpt lat="45.70608" lon="4.56001">
        <ele>892.132</ele>
        <time>2021-06-29T20:23:17Z</time>
      </trkpt>
      <trkpt lat="45.70612" lon="4.55996">
        <ele>892.886</ele>
        <time>2021-06-29T20:23:18Z</time>
      </trkpt>
      <trkpt lat="45.70616" lon="4.55991">
        <ele>893.543</ele>
        <time>2021-06-29T20:23:19Z</time>
      </trkpt>
      <trkpt lat="45.70624" lon="4.55983">
        <ele>895.056</ele>
        <time>2021-06-29T20:23:21Z</time>
      </trkpt>
      <trkpt lat="45.70627" lon="4.55978">
        <ele>895.743</ele>
        <time>2021-06-29T20:23:22Z</time>
      </trkpt>
      <trkpt lat="45.70631" lon="4.55972">
        <ele>896.318</ele>
        <time>2021-06-29T20:23:23Z</time>
      </trkpt>
      <trkpt lat="45.70635" lon="4.55966">
        <ele>896.912</ele>
        <time>2021-06-29T20:23:24Z</time>
      </trkpt>
      <trkpt lat="45.70638" lon="4.55961">
        <ele>897.532</ele>
        <time>2021-06-29T20:23:25Z</time>
      </trkpt>
      <trkpt lat="45.70642" lon="4.55955">
        <ele>898.005</ele>
        <time>2021-06-29T20:23:26Z</time>
      </trkpt>
      <trkpt lat="45.70646" lon="4.55948">
        <ele>898.508</ele>
        <time>2021-06-29T20:23:27Z</time>
      </trkpt>
      <trkpt lat="45.7065" lon="4.55941">
        <ele>899.048</ele>
        <time>2021-06-29T20:23:28Z</time>
      </trkpt>
      <trkpt lat="45.70653" lon="4.55933">
        <ele>899.448</ele>
        <time>2021-06-29T20:23:29Z</time>
      </trkpt>
      <trkpt lat="45.70657" lon="4.55925">
        <ele>899.881</ele>
        <time>2021-06-29T20:23:30Z</time>
      </trkpt>
      <trkpt lat="45.70661" lon="4.55917">
        <ele>900.115</ele>
        <time>2021-06-29T20:23:31Z</time>
      </trkpt>
      <trkpt lat="45.70665" lon="4.5591">
        <ele>900.452</ele>
        <time>2021-06-29T20:23:32Z</time>
      </trkpt>
      <trkpt lat="45.70669" lon="4.55903">
        <ele>900.655</ele>
        <time>2021-06-29T20:23:33Z</time>
      </trkpt>
      <trkpt lat="45.70673" lon="4.55894">
        <ele>900.882</ele>
        <time>2021-06-29T20:23:34Z</time>
      </trkpt>
      <trkpt lat="45.70677" lon="4.55887">
        <ele>901.027</ele>
        <time>2021-06-29T20:23:35Z</time>
      </trkpt>
      <trkpt lat="45.70681" lon="4.55879">
        <ele>901.236</ele>
        <time>2021-06-29T20:23:36Z</time>
      </trkpt>
      <trkpt lat="45.70685" lon="4.55872">
        <ele>901.417</ele>
        <time>2021-06-29T20:23:37Z</time>
      </trkpt>
      <trkpt lat="45.70689" lon="4.55865">
        <ele>901.618</ele>
        <time>2021-06-29T20:23:38Z</time>
      </trkpt>
      <trkpt lat="45.70692" lon="4.55859">
        <ele>901.708</ele>
        <time>2021-06-29T20:23:39Z</time>
      </trkpt>
      <trkpt lat="45.70697" lon="4.55852">
        <ele>902.02</ele>
        <time>2021-06-29T20:23:41Z</time>
      </trkpt>
      <trkpt lat="45.707" lon="4.55845">
        <ele>902.41</ele>
        <time>2021-06-29T20:23:43Z</time>
      </trkpt>
      <trkpt lat="45.70705" lon="4.55838">
        <ele>902.663</ele>
        <time>2021-06-29T20:23:45Z</time>
      </trkpt>
      <trkpt lat="45.70707" lon="4.55831">
        <ele>902.657</ele>
        <time>2021-06-29T20:23:47Z</time>
      </trkpt>
      <trkpt lat="45.70712" lon="4.55823">
        <ele>902.484</ele>
        <time>2021-06-29T20:23:50Z</time>
      </trkpt>
      <trkpt lat="45.70716" lon="4.55813">
        <ele>902.587</ele>
        <time>2021-06-29T20:23:52Z</time>
      </trkpt>
      <trkpt lat="45.70719" lon="4.55808">
        <ele>902.584</ele>
        <time>2021-06-29T20:23:53Z</time>
      </trkpt>
      <trkpt lat="45.70724" lon="4.55797">
        <ele>902.499</ele>
        <time>2021-06-29T20:23:55Z</time>
      </trkpt>
      <trkpt lat="45.70728" lon="4.5579">
        <ele>902.229</ele>
        <time>2021-06-29T20:23:56Z</time>
      </trkpt>
      <trkpt lat="45.70732" lon="4.55781">
        <ele>902</ele>
        <time>2021-06-29T20:23:58Z</time>
      </trkpt>
      <trkpt lat="45.70735" lon="4.55776">
        <ele>901.92</ele>
        <time>2021-06-29T20:23:59Z</time>
      </trkpt>
      <trkpt lat="45.70738" lon="4.55769">
        <ele>901.908</ele>
        <time>2021-06-29T20:24:00Z</time>
      </trkpt>
      <trkpt lat="45.70741" lon="4.55763">
        <ele>901.839</ele>
        <time>2021-06-29T20:24:01Z</time>
      </trkpt>
      <trkpt lat="45.70744" lon="4.55757">
        <ele>901.859</ele>
        <time>2021-06-29T20:24:02Z</time>
      </trkpt>
      <trkpt lat="45.70747" lon="4.55752">
        <ele>901.892</ele>
        <time>2021-06-29T20:24:03Z</time>
      </trkpt>
      <trkpt lat="45.70749" lon="4.55746">
        <ele>901.246</ele>
        <time>2021-06-29T20:24:06Z</time>
      </trkpt>
      <trkpt lat="45.70754" lon="4.55738">
        <ele>900.553</ele>
        <time>2021-06-29T20:24:09Z</time>
      </trkpt>
      <trkpt lat="45.70757" lon="4.55732">
        <ele>900.366</ele>
        <time>2021-06-29T20:24:11Z</time>
      </trkpt>
      <trkpt lat="45.7076" lon="4.55725">
        <ele>900.133</ele>
        <time>2021-06-29T20:24:13Z</time>
      </trkpt>
      <trkpt lat="45.70764" lon="4.55719">
        <ele>899.738</ele>
        <time>2021-06-29T20:24:16Z</time>
      </trkpt>
      <trkpt lat="45.70766" lon="4.55713">
        <ele>900.197</ele>
        <time>2021-06-29T20:24:22Z</time>
      </trkpt>
      <trkpt lat="45.70769" lon="4.55707">
        <ele>900.523</ele>
        <time>2021-06-29T20:24:25Z</time>
      </trkpt>
      <trkpt lat="45.70773" lon="4.55699">
        <ele>900.425</ele>
        <time>2021-06-29T20:24:28Z</time>
      </trkpt>
      <trkpt lat="45.70778" lon="4.5569">
        <ele>900.408</ele>
        <time>2021-06-29T20:24:30Z</time>
      </trkpt>
      <trkpt lat="45.70782" lon="4.55682">
        <ele>900.316</ele>
        <time>2021-06-29T20:24:32Z</time>
      </trkpt>
      <trkpt lat="45.70785" lon="4.55676">
        <ele>899.946</ele>
        <time>2021-06-29T20:24:34Z</time>
      </trkpt>
      <trkpt lat="45.70789" lon="4.55669">
        <ele>899.489</ele>
        <time>2021-06-29T20:24:36Z</time>
      </trkpt>
      <trkpt lat="45.70795" lon="4.55661">
        <ele>898.993</ele>
        <time>2021-06-29T20:24:38Z</time>
      </trkpt>
      <trkpt lat="45.70801" lon="4.55655">
        <ele>898.34</ele>
        <time>2021-06-29T20:24:40Z</time>
      </trkpt>
      <trkpt lat="45.70806" lon="4.55648">
        <ele>897.573</ele>
        <time>2021-06-29T20:24:42Z</time>
      </trkpt>
      <trkpt lat="45.70811" lon="4.55643">
        <ele>896.79</ele>
        <time>2021-06-29T20:24:44Z</time>
      </trkpt>
      <trkpt lat="45.70816" lon="4.55639">
        <ele>895.865</ele>
        <time>2021-06-29T20:24:46Z</time>
      </trkpt>
      <trkpt lat="45.70821" lon="4.55636">
        <ele>895.172</ele>
        <time>2021-06-29T20:24:48Z</time>
      </trkpt>
      <trkpt lat="45.70826" lon="4.55633">
        <ele>894.613</ele>
        <time>2021-06-29T20:24:50Z</time>
      </trkpt>
      <trkpt lat="45.70831" lon="4.5563">
        <ele>894.214</ele>
        <time>2021-06-29T20:24:52Z</time>
      </trkpt>
      <trkpt lat="45.70836" lon="4.55627">
        <ele>893.908</ele>
        <time>2021-06-29T20:24:54Z</time>
      </trkpt>
      <trkpt lat="45.70842" lon="4.55625">
        <ele>893.654</ele>
        <time>2021-06-29T20:24:56Z</time>
      </trkpt>
      <trkpt lat="45.70848" lon="4.55623">
        <ele>893.364</ele>
        <time>2021-06-29T20:24:58Z</time>
      </trkpt>
      <trkpt lat="45.70853" lon="4.5562">
        <ele>892.957</ele>
        <time>2021-06-29T20:25:00Z</time>
      </trkpt>
      <trkpt lat="45.70858" lon="4.55618">
        <ele>892.611</ele>
        <time>2021-06-29T20:25:02Z</time>
      </trkpt>
      <trkpt lat="45.70864" lon="4.55616">
        <ele>892.448</ele>
        <time>2021-06-29T20:25:04Z</time>
      </trkpt>
      <trkpt lat="45.70869" lon="4.55614">
        <ele>892.181</ele>
        <time>2021-06-29T20:25:06Z</time>
      </trkpt>
      <trkpt lat="45.70874" lon="4.55611">
        <ele>891.768</ele>
        <time>2021-06-29T20:25:08Z</time>
      </trkpt>
      <trkpt lat="45.7088" lon="4.55609">
        <ele>891.263</ele>
        <time>2021-06-29T20:25:10Z</time>
      </trkpt>
      <trkpt lat="45.70885" lon="4.55605">
        <ele>890.847</ele>
        <time>2021-06-29T20:25:12Z</time>
      </trkpt>
      <trkpt lat="45.7089" lon="4.55603">
        <ele>890.129</ele>
        <time>2021-06-29T20:25:15Z</time>
      </trkpt>
      <trkpt lat="45.70896" lon="4.556">
        <ele>889.821</ele>
        <time>2021-06-29T20:25:18Z</time>
      </trkpt>
      <trkpt lat="45.709" lon="4.55597">
        <ele>889.608</ele>
        <time>2021-06-29T20:25:20Z</time>
      </trkpt>
      <trkpt lat="45.70904" lon="4.55595">
        <ele>889.021</ele>
        <time>2021-06-29T20:25:22Z</time>
      </trkpt>
      <trkpt lat="45.70909" lon="4.55591">
        <ele>887.981</ele>
        <time>2021-06-29T20:25:26Z</time>
      </trkpt>
      <trkpt lat="45.70913" lon="4.55587">
        <ele>887.414</ele>
        <time>2021-06-29T20:25:30Z</time>
      </trkpt>
      <trkpt lat="45.70919" lon="4.55583">
        <ele>887.248</ele>
        <time>2021-06-29T20:25:32Z</time>
      </trkpt>
      <trkpt lat="45.70925" lon="4.55578">
        <ele>886.735</ele>
        <time>2021-06-29T20:25:34Z</time>
      </trkpt>
      <trkpt lat="45.70928" lon="4.55572">
        <ele>885.938</ele>
        <time>2021-06-29T20:25:36Z</time>
      </trkpt>
      <trkpt lat="45.70934" lon="4.5557">
        <ele>884.865</ele>
        <time>2021-06-29T20:25:39Z</time>
      </trkpt>
      <trkpt lat="45.70939" lon="4.55569">
        <ele>884.37</ele>
        <time>2021-06-29T20:25:42Z</time>
      </trkpt>
      <trkpt lat="45.70945" lon="4.55565">
        <ele>883.845</ele>
        <time>2021-06-29T20:25:45Z</time>
      </trkpt>
      <trkpt lat="45.70949" lon="4.55562">
        <ele>883.047</ele>
        <time>2021-06-29T20:25:47Z</time>
      </trkpt>
      <trkpt lat="45.70956" lon="4.55558">
        <ele>882.011</ele>
        <time>2021-06-29T20:25:50Z</time>
      </trkpt>
      <trkpt lat="45.70961" lon="4.55557">
        <ele>881.608</ele>
        <time>2021-06-29T20:25:52Z</time>
      </trkpt>
      <trkpt lat="45.70965" lon="4.55556">
        <ele>881.221</ele>
        <time>2021-06-29T20:25:54Z</time>
      </trkpt>
      <trkpt lat="45.70971" lon="4.55553">
        <ele>880.431</ele>
        <time>2021-06-29T20:25:58Z</time>
      </trkpt>
      <trkpt lat="45.70977" lon="4.5555">
        <ele>880.034</ele>
        <time>2021-06-29T20:26:01Z</time>
      </trkpt>
      <trkpt lat="45.70981" lon="4.55545">
        <ele>879.658</ele>
        <time>2021-06-29T20:26:03Z</time>
      </trkpt>
      <trkpt lat="45.70985" lon="4.55539">
        <ele>879.045</ele>
        <time>2021-06-29T20:26:05Z</time>
      </trkpt>
      <trkpt lat="45.7099" lon="4.55533">
        <ele>878.458</ele>
        <time>2021-06-29T20:26:07Z</time>
      </trkpt>
      <trkpt lat="45.70996" lon="4.55526">
        <ele>877.835</ele>
        <time>2021-06-29T20:26:09Z</time>
      </trkpt>
      <trkpt lat="45.71003" lon="4.5552">
        <ele>877.11</ele>
        <time>2021-06-29T20:26:11Z</time>
      </trkpt>
      <trkpt lat="45.71007" lon="4.55517">
        <ele>876.625</ele>
        <time>2021-06-29T20:26:12Z</time>
      </trkpt>
      <trkpt lat="45.71014" lon="4.55512">
        <ele>875.526</ele>
        <time>2021-06-29T20:26:14Z</time>
      </trkpt>
      <trkpt lat="45.71021" lon="4.55506">
        <ele>874.508</ele>
        <time>2021-06-29T20:26:16Z</time>
      </trkpt>
      <trkpt lat="45.71027" lon="4.55501">
        <ele>873.708</ele>
        <time>2021-06-29T20:26:18Z</time>
      </trkpt>
      <trkpt lat="45.71034" lon="4.55495">
        <ele>873.219</ele>
        <time>2021-06-29T20:26:20Z</time>
      </trkpt>
      <trkpt lat="45.7104" lon="4.5549">
        <ele>872.799</ele>
        <time>2021-06-29T20:26:22Z</time>
      </trkpt>
      <trkpt lat="45.71047" lon="4.55484">
        <ele>872.182</ele>
        <time>2021-06-29T20:26:24Z</time>
      </trkpt>
      <trkpt lat="45.71054" lon="4.55478">
        <ele>871.576</ele>
        <time>2021-06-29T20:26:26Z</time>
      </trkpt>
      <trkpt lat="45.71061" lon="4.55473">
        <ele>871.093</ele>
        <time>2021-06-29T20:26:28Z</time>
      </trkpt>
      <trkpt lat="45.71068" lon="4.55468">
        <ele>870.536</ele>
        <time>2021-06-29T20:26:30Z</time>
      </trkpt>
      <trkpt lat="45.71074" lon="4.55463">
        <ele>869.523</ele>
        <time>2021-06-29T20:26:33Z</time>
      </trkpt>
      <trkpt lat="45.71077" lon="4.55457">
        <ele>868.568</ele>
        <time>2021-06-29T20:26:40Z</time>
      </trkpt>
    </trkseg>
  </trk>
</gpx>